sensor_id;sensor_type;location;lat;lon;timestamp;P1;durP1;ratioP1;P2;durP2;ratioP2
70320;SDS011;61127;55.826;37.046;2023-08-01T00:00:04;23.70;;;9.25;;
70320;SDS011;61127;55.826;37.046;2023-08-01T00:02:38;22.90;;;9.45;;
70320;SDS011;61127;55.826;37.046;2023-08-01T00:05:08;19.73;;;9.00;;
70320;SDS011;61127;55.826;37.046;2023-08-01T00:07:35;17.50;;;8.70;;
70320;SDS011;61127;55.826;37.046;2023-08-01T00:10:01;18.93;;;8.97;;
70320;SDS011;61127;55.826;37.046;2023-08-01T00:12:27;20.77;;;9.20;;
70320;SDS011;61127;55.826;37.046;2023-08-01T00:14:53;17.88;;;8.98;;
70320;SDS011;61127;55.826;37.046;2023-08-01T00:17:19;15.90;;;7.93;;
70320;SDS011;61127;55.826;37.046;2023-08-01T00:19:46;20.80;;;8.60;;
70320;SDS011;61127;55.826;37.046;2023-08-01T00:22:12;17.92;;;7.68;;
70320;SDS011;61127;55.826;37.046;2023-08-01T00:24:38;17.38;;;8.23;;
70320;SDS011;61127;55.826;37.046;2023-08-01T00:27:04;15.30;;;7.88;;
70320;SDS011;61127;55.826;37.046;2023-08-01T00:29:30;18.27;;;8.13;;
70320;SDS011;61127;55.826;37.046;2023-08-01T00:31:56;14.02;;;7.72;;
70320;SDS011;61127;55.826;37.046;2023-08-01T00:34:22;18.95;;;8.02;;
70320;SDS011;61127;55.826;37.046;2023-08-01T00:36:48;13.43;;;8.17;;
70320;SDS011;61127;55.826;37.046;2023-08-01T00:39:14;13.45;;;7.88;;
70320;SDS011;61127;55.826;37.046;2023-08-01T00:41:40;14.80;;;7.80;;
70320;SDS011;61127;55.826;37.046;2023-08-01T00:44:06;13.95;;;7.47;;
70320;SDS011;61127;55.826;37.046;2023-08-01T00:46:32;14.43;;;7.33;;
70320;SDS011;61127;55.826;37.046;2023-08-01T00:48:58;12.05;;;7.53;;
70320;SDS011;61127;55.826;37.046;2023-08-01T00:51:26;17.40;;;7.75;;
70320;SDS011;61127;55.826;37.046;2023-08-01T00:53:53;14.27;;;7.63;;
70320;SDS011;61127;55.826;37.046;2023-08-01T00:56:19;14.30;;;7.60;;
70320;SDS011;61127;55.826;37.046;2023-08-01T00:58:45;11.97;;;7.53;;
70320;SDS011;61127;55.826;37.046;2023-08-01T01:01:11;13.60;;;7.38;;
70320;SDS011;61127;55.826;37.046;2023-08-01T01:03:37;16.83;;;7.78;;
70320;SDS011;61127;55.826;37.046;2023-08-01T01:06:17;11.43;;;7.78;;
70320;SDS011;61127;55.826;37.046;2023-08-01T01:08:49;14.07;;;7.93;;
70320;SDS011;61127;55.826;37.046;2023-08-01T01:11:15;17.88;;;8.40;;
70320;SDS011;61127;55.826;37.046;2023-08-01T01:13:41;13.85;;;8.35;;
70320;SDS011;61127;55.826;37.046;2023-08-01T01:16:07;17.23;;;8.50;;
70320;SDS011;61127;55.826;37.046;2023-08-01T01:18:33;18.33;;;8.27;;
70320;SDS011;61127;55.826;37.046;2023-08-01T01:20:59;13.38;;;8.18;;
70320;SDS011;61127;55.826;37.046;2023-08-01T01:23:25;16.37;;;8.30;;
70320;SDS011;61127;55.826;37.046;2023-08-01T01:25:53;17.63;;;8.63;;
70320;SDS011;61127;55.826;37.046;2023-08-01T01:28:21;18.52;;;8.60;;
70320;SDS011;61127;55.826;37.046;2023-08-01T01:30:48;16.20;;;8.18;;
70320;SDS011;61127;55.826;37.046;2023-08-01T01:33:14;14.35;;;7.85;;
70320;SDS011;61127;55.826;37.046;2023-08-01T01:35:41;17.87;;;8.03;;
70320;SDS011;61127;55.826;37.046;2023-08-01T01:38:07;19.05;;;8.15;;
70320;SDS011;61127;55.826;37.046;2023-08-01T01:40:33;16.35;;;8.18;;
70320;SDS011;61127;55.826;37.046;2023-08-01T01:42:59;13.63;;;7.85;;
70320;SDS011;61127;55.826;37.046;2023-08-01T01:45:26;13.63;;;7.30;;
70320;SDS011;61127;55.826;37.046;2023-08-01T01:47:52;12.70;;;7.70;;
70320;SDS011;61127;55.826;37.046;2023-08-01T01:50:19;13.23;;;7.68;;
70320;SDS011;61127;55.826;37.046;2023-08-01T01:52:45;18.17;;;8.52;;
70320;SDS011;61127;55.826;37.046;2023-08-01T01:55:11;12.97;;;8.40;;
70320;SDS011;61127;55.826;37.046;2023-08-01T01:57:38;14.25;;;8.00;;
70320;SDS011;61127;55.826;37.046;2023-08-01T02:00:05;12.65;;;7.40;;
70320;SDS011;61127;55.826;37.046;2023-08-01T02:02:38;13.77;;;7.68;;
70320;SDS011;61127;55.826;37.046;2023-08-01T02:05:04;14.77;;;7.90;;
70320;SDS011;61127;55.826;37.046;2023-08-01T02:07:30;12.93;;;7.90;;
70320;SDS011;61127;55.826;37.046;2023-08-01T02:09:57;15.00;;;8.02;;
70320;SDS011;61127;55.826;37.046;2023-08-01T02:12:23;15.05;;;7.78;;
70320;SDS011;61127;55.826;37.046;2023-08-01T02:14:49;16.35;;;8.00;;
70320;SDS011;61127;55.826;37.046;2023-08-01T02:17:15;12.10;;;7.60;;
70320;SDS011;61127;55.826;37.046;2023-08-01T02:19:41;16.20;;;8.20;;
70320;SDS011;61127;55.826;37.046;2023-08-01T02:22:07;13.88;;;8.23;;
70320;SDS011;61127;55.826;37.046;2023-08-01T02:24:33;14.80;;;8.20;;
70320;SDS011;61127;55.826;37.046;2023-08-01T02:26:59;17.60;;;9.03;;
70320;SDS011;61127;55.826;37.046;2023-08-01T02:29:25;12.85;;;8.02;;
70320;SDS011;61127;55.826;37.046;2023-08-01T02:31:51;13.70;;;7.82;;
70320;SDS011;61127;55.826;37.046;2023-08-01T02:34:17;12.13;;;8.47;;
70320;SDS011;61127;55.826;37.046;2023-08-01T02:36:43;15.87;;;8.93;;
70320;SDS011;61127;55.826;37.046;2023-08-01T02:39:09;15.18;;;8.52;;
70320;SDS011;61127;55.826;37.046;2023-08-01T02:41:35;13.23;;;8.10;;
70320;SDS011;61127;55.826;37.046;2023-08-01T02:44:01;19.23;;;8.60;;
70320;SDS011;61127;55.826;37.046;2023-08-01T02:46:27;15.38;;;8.85;;
70320;SDS011;61127;55.826;37.046;2023-08-01T02:48:55;17.58;;;8.25;;
70320;SDS011;61127;55.826;37.046;2023-08-01T02:51:21;15.93;;;7.97;;
70320;SDS011;61127;55.826;37.046;2023-08-01T02:53:47;15.82;;;8.45;;
70320;SDS011;61127;55.826;37.046;2023-08-01T02:56:12;17.97;;;9.40;;
70320;SDS011;61127;55.826;37.046;2023-08-01T02:58:39;16.90;;;8.77;;
70320;SDS011;61127;55.826;37.046;2023-08-01T03:01:08;17.90;;;9.18;;
70320;SDS011;61127;55.826;37.046;2023-08-01T03:03:35;16.37;;;8.50;;
70320;SDS011;61127;55.826;37.046;2023-08-01T03:06:02;18.17;;;8.68;;
70320;SDS011;61127;55.826;37.046;2023-08-01T03:08:28;14.82;;;8.70;;
70320;SDS011;61127;55.826;37.046;2023-08-01T03:10:55;16.38;;;7.63;;
70320;SDS011;61127;55.826;37.046;2023-08-01T03:13:21;16.63;;;8.93;;
70320;SDS011;61127;55.826;37.046;2023-08-01T03:15:47;15.17;;;9.07;;
70320;SDS011;61127;55.826;37.046;2023-08-01T03:18:13;13.95;;;9.13;;
70320;SDS011;61127;55.826;37.046;2023-08-01T03:20:39;14.35;;;7.72;;
70320;SDS011;61127;55.826;37.046;2023-08-01T03:23:05;12.68;;;8.20;;
70320;SDS011;61127;55.826;37.046;2023-08-01T03:25:31;15.00;;;8.23;;
70320;SDS011;61127;55.826;37.046;2023-08-01T03:27:58;13.57;;;8.57;;
70320;SDS011;61127;55.826;37.046;2023-08-01T03:30:24;15.60;;;7.85;;
70320;SDS011;61127;55.826;37.046;2023-08-01T03:32:51;15.88;;;8.20;;
70320;SDS011;61127;55.826;37.046;2023-08-01T03:35:17;15.63;;;8.20;;
70320;SDS011;61127;55.826;37.046;2023-08-01T03:37:43;12.67;;;8.57;;
70320;SDS011;61127;55.826;37.046;2023-08-01T03:40:09;14.23;;;8.88;;
70320;SDS011;61127;55.826;37.046;2023-08-01T03:42:36;17.25;;;9.20;;
70320;SDS011;61127;55.826;37.046;2023-08-01T03:45:03;13.57;;;8.67;;
70320;SDS011;61127;55.826;37.046;2023-08-01T03:47:31;17.20;;;9.52;;
70320;SDS011;61127;55.826;37.046;2023-08-01T03:49:57;15.70;;;8.13;;
70320;SDS011;61127;55.826;37.046;2023-08-01T03:52:23;13.02;;;8.10;;
70320;SDS011;61127;55.826;37.046;2023-08-01T03:54:49;14.27;;;8.27;;
70320;SDS011;61127;55.826;37.046;2023-08-01T03:57:18;17.30;;;7.27;;
70320;SDS011;61127;55.826;37.046;2023-08-01T03:59:46;13.90;;;7.43;;
70320;SDS011;61127;55.826;37.046;2023-08-01T04:02:11;14.88;;;7.60;;
70320;SDS011;61127;55.826;37.046;2023-08-01T04:04:38;14.52;;;7.55;;
70320;SDS011;61127;55.826;37.046;2023-08-01T04:07:03;13.97;;;7.50;;
70320;SDS011;61127;55.826;37.046;2023-08-01T04:09:30;14.00;;;7.93;;
70320;SDS011;61127;55.826;37.046;2023-08-01T04:11:56;11.60;;;7.22;;
70320;SDS011;61127;55.826;37.046;2023-08-01T04:14:24;13.32;;;7.35;;
70320;SDS011;61127;55.826;37.046;2023-08-01T04:16:50;14.53;;;7.90;;
70320;SDS011;61127;55.826;37.046;2023-08-01T04:19:16;12.68;;;7.72;;
70320;SDS011;61127;55.826;37.046;2023-08-01T04:21:42;16.90;;;8.57;;
70320;SDS011;61127;55.826;37.046;2023-08-01T04:24:08;15.10;;;7.97;;
70320;SDS011;61127;55.826;37.046;2023-08-01T04:26:34;13.02;;;7.78;;
70320;SDS011;61127;55.826;37.046;2023-08-01T04:29:02;14.98;;;7.40;;
70320;SDS011;61127;55.826;37.046;2023-08-01T04:31:28;13.73;;;8.20;;
70320;SDS011;61127;55.826;37.046;2023-08-01T04:33:54;13.00;;;7.75;;
70320;SDS011;61127;55.826;37.046;2023-08-01T04:36:20;12.43;;;7.57;;
70320;SDS011;61127;55.826;37.046;2023-08-01T04:38:46;11.68;;;7.78;;
70320;SDS011;61127;55.826;37.046;2023-08-01T04:41:12;14.07;;;7.83;;
70320;SDS011;61127;55.826;37.046;2023-08-01T04:43:38;11.98;;;7.20;;
70320;SDS011;61127;55.826;37.046;2023-08-01T04:46:04;15.97;;;8.23;;
70320;SDS011;61127;55.826;37.046;2023-08-01T04:48:30;11.30;;;6.70;;
70320;SDS011;61127;55.826;37.046;2023-08-01T04:50:56;15.95;;;7.10;;
70320;SDS011;61127;55.826;37.046;2023-08-01T04:53:22;12.13;;;7.47;;
70320;SDS011;61127;55.826;37.046;2023-08-01T04:55:47;11.23;;;7.40;;
70320;SDS011;61127;55.826;37.046;2023-08-01T04:58:13;14.45;;;6.68;;
70320;SDS011;61127;55.826;37.046;2023-08-01T05:00:41;11.95;;;7.28;;
70320;SDS011;61127;55.826;37.046;2023-08-01T05:03:07;11.83;;;6.87;;
70320;SDS011;61127;55.826;37.046;2023-08-01T05:05:33;12.88;;;6.82;;
70320;SDS011;61127;55.826;37.046;2023-08-01T05:08:00;12.45;;;6.20;;
70320;SDS011;61127;55.826;37.046;2023-08-01T05:10:25;11.83;;;7.33;;
70320;SDS011;61127;55.826;37.046;2023-08-01T05:12:51;13.02;;;6.47;;
70320;SDS011;61127;55.826;37.046;2023-08-01T05:15:45;14.18;;;6.63;;
70320;SDS011;61127;55.826;37.046;2023-08-01T05:18:18;13.77;;;6.25;;
70320;SDS011;61127;55.826;37.046;2023-08-01T05:20:44;12.60;;;6.33;;
70320;SDS011;61127;55.826;37.046;2023-08-01T05:23:10;10.75;;;6.30;;
70320;SDS011;61127;55.826;37.046;2023-08-01T05:25:36;13.05;;;6.60;;
70320;SDS011;61127;55.826;37.046;2023-08-01T05:28:02;13.73;;;6.43;;
70320;SDS011;61127;55.826;37.046;2023-08-01T05:30:28;12.37;;;6.50;;
70320;SDS011;61127;55.826;37.046;2023-08-01T05:32:54;12.77;;;6.13;;
70320;SDS011;61127;55.826;37.046;2023-08-01T05:35:20;10.82;;;6.00;;
70320;SDS011;61127;55.826;37.046;2023-08-01T05:37:46;13.13;;;6.30;;
70320;SDS011;61127;55.826;37.046;2023-08-01T05:40:12;12.18;;;6.13;;
70320;SDS011;61127;55.826;37.046;2023-08-01T05:42:39;9.77;;;5.57;;
70320;SDS011;61127;55.826;37.046;2023-08-01T05:45:05;11.20;;;5.20;;
70320;SDS011;61127;55.826;37.046;2023-08-01T05:47:31;10.83;;;5.80;;
70320;SDS011;61127;55.826;37.046;2023-08-01T05:49:57;8.75;;;5.20;;
70320;SDS011;61127;55.826;37.046;2023-08-01T05:52:23;13.00;;;5.25;;
70320;SDS011;61127;55.826;37.046;2023-08-01T05:54:49;9.52;;;5.22;;
70320;SDS011;61127;55.826;37.046;2023-08-01T05:57:15;11.90;;;4.90;;
70320;SDS011;61127;55.826;37.046;2023-08-01T05:59:41;8.88;;;4.68;;
70320;SDS011;61127;55.826;37.046;2023-08-01T06:02:07;9.82;;;4.80;;
70320;SDS011;61127;55.826;37.046;2023-08-01T06:04:33;6.20;;;3.87;;
70320;SDS011;61127;55.826;37.046;2023-08-01T06:06:59;6.03;;;3.90;;
70320;SDS011;61127;55.826;37.046;2023-08-01T06:09:25;11.05;;;4.65;;
70320;SDS011;61127;55.826;37.046;2023-08-01T06:11:51;8.23;;;3.97;;
70320;SDS011;61127;55.826;37.046;2023-08-01T06:14:17;8.17;;;3.60;;
70320;SDS011;61127;55.826;37.046;2023-08-01T06:16:43;6.05;;;3.13;;
70320;SDS011;61127;55.826;37.046;2023-08-01T06:19:09;6.68;;;3.42;;
70320;SDS011;61127;55.826;37.046;2023-08-01T06:21:35;4.40;;;3.20;;
70320;SDS011;61127;55.826;37.046;2023-08-01T06:24:01;6.27;;;2.90;;
70320;SDS011;61127;55.826;37.046;2023-08-01T06:26:27;4.47;;;2.95;;
70320;SDS011;61127;55.826;37.046;2023-08-01T06:28:53;4.95;;;3.00;;
70320;SDS011;61127;55.826;37.046;2023-08-01T06:31:22;6.00;;;2.30;;
70320;SDS011;61127;55.826;37.046;2023-08-01T06:33:48;4.15;;;2.80;;
70320;SDS011;61127;55.826;37.046;2023-08-01T06:36:14;4.15;;;2.70;;
70320;SDS011;61127;55.826;37.046;2023-08-01T06:38:42;4.85;;;2.40;;
70320;SDS011;61127;55.826;37.046;2023-08-01T06:41:09;3.50;;;2.60;;
70320;SDS011;61127;55.826;37.046;2023-08-01T06:43:34;6.20;;;2.75;;
70320;SDS011;61127;55.826;37.046;2023-08-01T06:46:04;5.75;;;2.70;;
70320;SDS011;61127;55.826;37.046;2023-08-01T06:48:31;4.00;;;2.60;;
70320;SDS011;61127;55.826;37.046;2023-08-01T06:51:00;8.50;;;2.97;;
70320;SDS011;61127;55.826;37.046;2023-08-01T06:53:27;4.10;;;2.53;;
70320;SDS011;61127;55.826;37.046;2023-08-01T06:55:53;3.08;;;2.67;;
70320;SDS011;61127;55.826;37.046;2023-08-01T06:58:19;4.38;;;2.70;;
70320;SDS011;61127;55.826;37.046;2023-08-01T07:00:45;3.60;;;2.80;;
70320;SDS011;61127;55.826;37.046;2023-08-01T07:03:11;4.70;;;2.65;;
70320;SDS011;61127;55.826;37.046;2023-08-01T07:05:36;4.68;;;2.83;;
70320;SDS011;61127;55.826;37.046;2023-08-01T07:08:02;4.32;;;3.20;;
70320;SDS011;61127;55.826;37.046;2023-08-01T07:10:29;5.67;;;3.00;;
70320;SDS011;61127;55.826;37.046;2023-08-01T07:12:56;4.57;;;3.20;;
70320;SDS011;61127;55.826;37.046;2023-08-01T07:15:22;5.75;;;2.92;;
70320;SDS011;61127;55.826;37.046;2023-08-01T07:17:47;4.73;;;2.70;;
70320;SDS011;61127;55.826;37.046;2023-08-01T07:20:13;8.40;;;3.00;;
70320;SDS011;61127;55.826;37.046;2023-08-01T07:22:39;4.85;;;2.75;;
70320;SDS011;61127;55.826;37.046;2023-08-01T07:25:06;6.03;;;2.95;;
70320;SDS011;61127;55.826;37.046;2023-08-01T07:27:31;5.60;;;3.10;;
70320;SDS011;61127;55.826;37.046;2023-08-01T07:29:57;6.28;;;3.10;;
70320;SDS011;61127;55.826;37.046;2023-08-01T07:32:26;3.88;;;2.90;;
70320;SDS011;61127;55.826;37.046;2023-08-01T07:34:54;3.50;;;3.10;;
70320;SDS011;61127;55.826;37.046;2023-08-01T07:37:20;6.47;;;2.93;;
70320;SDS011;61127;55.826;37.046;2023-08-01T07:39:49;6.75;;;3.50;;
70320;SDS011;61127;55.826;37.046;2023-08-01T07:42:15;7.07;;;3.50;;
70320;SDS011;61127;55.826;37.046;2023-08-01T07:44:41;8.00;;;3.60;;
70320;SDS011;61127;55.826;37.046;2023-08-01T07:47:07;7.27;;;3.70;;
70320;SDS011;61127;55.826;37.046;2023-08-01T07:49:33;4.55;;;3.50;;
70320;SDS011;61127;55.826;37.046;2023-08-01T07:51:59;5.35;;;3.30;;
70320;SDS011;61127;55.826;37.046;2023-08-01T07:54:25;5.43;;;3.20;;
70320;SDS011;61127;55.826;37.046;2023-08-01T07:56:51;4.97;;;3.40;;
70320;SDS011;61127;55.826;37.046;2023-08-01T07:59:17;5.60;;;3.47;;
70320;SDS011;61127;55.826;37.046;2023-08-01T08:01:42;5.30;;;3.00;;
70320;SDS011;61127;55.826;37.046;2023-08-01T08:04:08;5.03;;;3.20;;
70320;SDS011;61127;55.826;37.046;2023-08-01T08:06:35;3.33;;;2.83;;
70320;SDS011;61127;55.826;37.046;2023-08-01T08:09:02;5.57;;;2.92;;
70320;SDS011;61127;55.826;37.046;2023-08-01T08:11:28;7.07;;;3.40;;
70320;SDS011;61127;55.826;37.046;2023-08-01T08:13:54;5.03;;;2.97;;
70320;SDS011;61127;55.826;37.046;2023-08-01T08:16:20;4.93;;;3.45;;
70320;SDS011;61127;55.826;37.046;2023-08-01T08:18:46;7.28;;;3.28;;
70320;SDS011;61127;55.826;37.046;2023-08-01T08:21:12;3.90;;;3.13;;
70320;SDS011;61127;55.826;37.046;2023-08-01T08:23:38;4.80;;;3.20;;
70320;SDS011;61127;55.826;37.046;2023-08-01T08:26:03;6.05;;;3.40;;
70320;SDS011;61127;55.826;37.046;2023-08-01T08:28:32;5.40;;;3.60;;
70320;SDS011;61127;55.826;37.046;2023-08-01T08:30:58;5.93;;;3.42;;
70320;SDS011;61127;55.826;37.046;2023-08-01T08:33:25;5.80;;;3.40;;
70320;SDS011;61127;55.826;37.046;2023-08-01T08:35:51;6.60;;;3.40;;
70320;SDS011;61127;55.826;37.046;2023-08-01T08:38:17;8.65;;;4.00;;
70320;SDS011;61127;55.826;37.046;2023-08-01T08:40:55;5.07;;;3.40;;
70320;SDS011;61127;55.826;37.046;2023-08-01T08:43:25;5.80;;;3.70;;
70320;SDS011;61127;55.826;37.046;2023-08-01T08:45:53;8.43;;;4.03;;
70320;SDS011;61127;55.826;37.046;2023-08-01T08:48:23;5.35;;;3.63;;
70320;SDS011;61127;55.826;37.046;2023-08-01T08:50:50;5.95;;;3.75;;
70320;SDS011;61127;55.826;37.046;2023-08-01T08:53:17;9.30;;;3.67;;
70320;SDS011;61127;55.826;37.046;2023-08-01T08:55:43;5.50;;;3.42;;
70320;SDS011;61127;55.826;37.046;2023-08-01T08:58:09;4.88;;;3.15;;
70320;SDS011;61127;55.826;37.046;2023-08-01T09:00:35;5.45;;;3.60;;
70320;SDS011;61127;55.826;37.046;2023-08-01T09:03:03;5.20;;;3.35;;
70320;SDS011;61127;55.826;37.046;2023-08-01T09:05:30;4.77;;;3.20;;
70320;SDS011;61127;55.826;37.046;2023-08-01T09:08:20;6.70;;;3.60;;
70320;SDS011;61127;55.826;37.046;2023-08-01T09:10:47;6.70;;;3.83;;
70320;SDS011;61127;55.826;37.046;2023-08-01T09:13:13;5.07;;;3.40;;
70320;SDS011;61127;55.826;37.046;2023-08-01T09:15:40;6.65;;;4.00;;
70320;SDS011;61127;55.826;37.046;2023-08-01T09:18:08;5.70;;;4.13;;
70320;SDS011;61127;55.826;37.046;2023-08-01T09:20:41;4.65;;;3.50;;
70320;SDS011;61127;55.826;37.046;2023-08-01T09:23:11;7.65;;;3.50;;
70320;SDS011;61127;55.826;37.046;2023-08-01T09:25:38;4.93;;;3.75;;
70320;SDS011;61127;55.826;37.046;2023-08-01T09:28:14;4.53;;;3.38;;
70320;SDS011;61127;55.826;37.046;2023-08-01T09:30:45;5.83;;;3.30;;
70320;SDS011;61127;55.826;37.046;2023-08-01T09:33:15;3.47;;;3.17;;
70320;SDS011;61127;55.826;37.046;2023-08-01T09:35:41;4.95;;;3.60;;
70320;SDS011;61127;55.826;37.046;2023-08-01T09:38:10;5.18;;;3.10;;
70320;SDS011;61127;55.826;37.046;2023-08-01T09:40:38;4.63;;;3.38;;
70320;SDS011;61127;55.826;37.046;2023-08-01T09:43:04;5.30;;;3.37;;
70320;SDS011;61127;55.826;37.046;2023-08-01T09:45:30;6.25;;;3.60;;
70320;SDS011;61127;55.826;37.046;2023-08-01T09:47:56;8.43;;;3.80;;
70320;SDS011;61127;55.826;37.046;2023-08-01T09:50:23;5.13;;;3.73;;
70320;SDS011;61127;55.826;37.046;2023-08-01T09:52:49;6.18;;;3.90;;
70320;SDS011;61127;55.826;37.046;2023-08-01T09:55:20;6.18;;;3.90;;
70320;SDS011;61127;55.826;37.046;2023-08-01T09:57:58;5.15;;;3.72;;
70320;SDS011;61127;55.826;37.046;2023-08-01T10:00:28;5.13;;;3.95;;
70320;SDS011;61127;55.826;37.046;2023-08-01T10:02:56;8.27;;;4.20;;
70320;SDS011;61127;55.826;37.046;2023-08-01T10:05:26;4.45;;;3.58;;
70320;SDS011;61127;55.826;37.046;2023-08-01T10:07:56;8.70;;;3.90;;
70320;SDS011;61127;55.826;37.046;2023-08-01T10:10:24;5.43;;;3.92;;
70320;SDS011;61127;55.826;37.046;2023-08-01T10:12:50;4.60;;;4.10;;
70320;SDS011;61127;55.826;37.046;2023-08-01T10:15:18;7.00;;;4.10;;
70320;SDS011;61127;55.826;37.046;2023-08-01T10:17:44;7.65;;;3.80;;
70320;SDS011;61127;55.826;37.046;2023-08-01T10:20:10;5.25;;;3.28;;
70320;SDS011;61127;55.826;37.046;2023-08-01T10:22:39;7.43;;;3.22;;
70320;SDS011;61127;55.826;37.046;2023-08-01T10:25:07;3.75;;;3.13;;
70320;SDS011;61127;55.826;37.046;2023-08-01T10:27:35;4.77;;;3.50;;
70320;SDS011;61127;55.826;37.046;2023-08-01T10:30:02;6.22;;;3.75;;
70320;SDS011;61127;55.826;37.046;2023-08-01T10:32:35;4.30;;;3.38;;
70320;SDS011;61127;55.826;37.046;2023-08-01T10:35:02;7.55;;;4.10;;
70320;SDS011;61127;55.826;37.046;2023-08-01T10:37:42;4.00;;;3.60;;
70320;SDS011;61127;55.826;37.046;2023-08-01T10:40:09;6.40;;;3.90;;
70320;SDS011;61127;55.826;37.046;2023-08-01T10:42:42;6.20;;;4.00;;
70320;SDS011;61127;55.826;37.046;2023-08-01T10:45:20;5.72;;;3.60;;
70320;SDS011;61127;55.826;37.046;2023-08-01T10:47:48;4.30;;;3.20;;
70320;SDS011;61127;55.826;37.046;2023-08-01T10:50:15;4.67;;;3.57;;
70320;SDS011;61127;55.826;37.046;2023-08-01T10:52:41;4.72;;;3.10;;
70320;SDS011;61127;55.826;37.046;2023-08-01T10:55:08;4.15;;;3.20;;
70320;SDS011;61127;55.826;37.046;2023-08-01T10:57:36;5.35;;;3.10;;
70320;SDS011;61127;55.826;37.046;2023-08-01T11:00:04;3.90;;;3.00;;
70320;SDS011;61127;55.826;37.046;2023-08-01T11:02:36;6.40;;;3.50;;
70320;SDS011;61127;55.826;37.046;2023-08-01T11:05:03;6.97;;;3.47;;
70320;SDS011;61127;55.826;37.046;2023-08-01T11:07:31;5.90;;;3.30;;
70320;SDS011;61127;55.826;37.046;2023-08-01T11:10:07;7.25;;;3.50;;
70320;SDS011;61127;55.826;37.046;2023-08-01T11:12:36;5.95;;;3.58;;
70320;SDS011;61127;55.826;37.046;2023-08-01T11:15:03;7.73;;;3.50;;
70320;SDS011;61127;55.826;37.046;2023-08-01T11:17:31;5.55;;;3.33;;
70320;SDS011;61127;55.826;37.046;2023-08-01T11:20:02;7.35;;;3.45;;
70320;SDS011;61127;55.826;37.046;2023-08-01T11:22:30;6.13;;;3.50;;
70320;SDS011;61127;55.826;37.046;2023-08-01T11:24:56;5.40;;;3.33;;
70320;SDS011;61127;55.826;37.046;2023-08-01T11:27:23;5.77;;;3.00;;
70320;SDS011;61127;55.826;37.046;2023-08-01T11:29:50;5.43;;;3.33;;
70320;SDS011;61127;55.826;37.046;2023-08-01T11:32:16;5.95;;;3.63;;
70320;SDS011;61127;55.826;37.046;2023-08-01T11:34:42;5.97;;;3.28;;
70320;SDS011;61127;55.826;37.046;2023-08-01T11:37:13;5.80;;;3.30;;
70320;SDS011;61127;55.826;37.046;2023-08-01T11:39:41;5.63;;;3.95;;
70320;SDS011;61127;55.826;37.046;2023-08-01T11:42:07;11.35;;;4.28;;
70320;SDS011;61127;55.826;37.046;2023-08-01T11:44:33;7.95;;;4.00;;
70320;SDS011;61127;55.826;37.046;2023-08-01T11:46:59;13.00;;;4.80;;
70320;SDS011;61127;55.826;37.046;2023-08-01T11:49:25;8.95;;;4.28;;
70320;SDS011;61127;55.826;37.046;2023-08-01T11:51:51;6.35;;;4.15;;
70320;SDS011;61127;55.826;37.046;2023-08-01T11:54:17;7.28;;;4.75;;
70320;SDS011;61127;55.826;37.046;2023-08-01T11:56:45;8.85;;;4.80;;
70320;SDS011;61127;55.826;37.046;2023-08-01T11:59:15;6.47;;;4.30;;
70320;SDS011;61127;55.826;37.046;2023-08-01T12:01:43;5.32;;;4.82;;
70320;SDS011;61127;55.826;37.046;2023-08-01T12:04:11;6.55;;;4.95;;
70320;SDS011;61127;55.826;37.046;2023-08-01T12:06:37;6.07;;;5.47;;
70320;SDS011;61127;55.826;37.046;2023-08-01T12:09:11;7.13;;;6.00;;
70320;SDS011;61127;55.826;37.046;2023-08-01T12:11:38;6.70;;;5.90;;
70320;SDS011;61127;55.826;37.046;2023-08-01T12:14:13;7.03;;;6.32;;
70320;SDS011;61127;55.826;37.046;2023-08-01T12:16:41;6.70;;;6.10;;
70320;SDS011;61127;55.826;37.046;2023-08-01T12:19:20;6.50;;;5.70;;
70320;SDS011;61127;55.826;37.046;2023-08-01T12:21:46;5.90;;;4.93;;
70320;SDS011;61127;55.826;37.046;2023-08-01T12:24:12;5.90;;;5.32;;
70320;SDS011;61127;55.826;37.046;2023-08-01T12:26:39;5.82;;;5.22;;
70320;SDS011;61127;55.826;37.046;2023-08-01T12:29:05;6.30;;;5.72;;
70320;SDS011;61127;55.826;37.046;2023-08-01T12:31:31;5.50;;;4.97;;
70320;SDS011;61127;55.826;37.046;2023-08-01T12:33:57;5.43;;;4.03;;
70320;SDS011;61127;55.826;37.046;2023-08-01T12:36:23;4.80;;;4.40;;
70320;SDS011;61127;55.826;37.046;2023-08-01T12:38:49;5.78;;;4.20;;
70320;SDS011;61127;55.826;37.046;2023-08-01T12:41:15;6.88;;;3.50;;
70320;SDS011;61127;55.826;37.046;2023-08-01T12:43:41;5.05;;;3.00;;
70320;SDS011;61127;55.826;37.046;2023-08-01T12:46:07;5.68;;;3.33;;
70320;SDS011;61127;55.826;37.046;2023-08-01T12:48:33;4.07;;;3.10;;
70320;SDS011;61127;55.826;37.046;2023-08-01T12:50:59;4.80;;;2.90;;
70320;SDS011;61127;55.826;37.046;2023-08-01T12:53:25;6.68;;;3.10;;
70320;SDS011;61127;55.826;37.046;2023-08-01T12:55:56;6.87;;;3.30;;
70320;SDS011;61127;55.826;37.046;2023-08-01T12:58:22;3.50;;;3.20;;
70320;SDS011;61127;55.826;37.046;2023-08-01T13:00:48;3.75;;;3.15;;
70320;SDS011;61127;55.826;37.046;2023-08-01T13:03:14;4.95;;;3.20;;
70320;SDS011;61127;55.826;37.046;2023-08-01T13:05:41;3.93;;;3.07;;
70320;SDS011;61127;55.826;37.046;2023-08-01T13:08:08;3.70;;;3.20;;
70320;SDS011;61127;55.826;37.046;2023-08-01T13:10:35;4.70;;;2.92;;
70320;SDS011;61127;55.826;37.046;2023-08-01T13:13:02;4.28;;;3.22;;
70320;SDS011;61127;55.826;37.046;2023-08-01T13:15:29;6.63;;;3.10;;
70320;SDS011;61127;55.826;37.046;2023-08-01T13:17:55;5.40;;;3.20;;
70320;SDS011;61127;55.826;37.046;2023-08-01T13:20:21;5.70;;;3.15;;
70320;SDS011;61127;55.826;37.046;2023-08-01T13:22:51;6.72;;;3.15;;
70320;SDS011;61127;55.826;37.046;2023-08-01T13:25:18;6.50;;;3.30;;
70320;SDS011;61127;55.826;37.046;2023-08-01T13:27:45;4.57;;;2.92;;
70320;SDS011;61127;55.826;37.046;2023-08-01T13:30:11;5.53;;;3.17;;
70320;SDS011;61127;55.826;37.046;2023-08-01T13:32:40;6.28;;;3.28;;
70320;SDS011;61127;55.826;37.046;2023-08-01T13:35:06;4.28;;;3.60;;
70320;SDS011;61127;55.826;37.046;2023-08-01T13:37:32;4.72;;;3.22;;
70320;SDS011;61127;55.826;37.046;2023-08-01T13:39:58;4.00;;;3.13;;
70320;SDS011;61127;55.826;37.046;2023-08-01T13:42:25;6.35;;;3.17;;
70320;SDS011;61127;55.826;37.046;2023-08-01T13:44:53;5.25;;;3.17;;
70320;SDS011;61127;55.826;37.046;2023-08-01T13:47:19;11.25;;;3.50;;
70320;SDS011;61127;55.826;37.046;2023-08-01T13:49:46;10.38;;;3.50;;
70320;SDS011;61127;55.826;37.046;2023-08-01T13:52:11;7.77;;;3.50;;
70320;SDS011;61127;55.826;37.046;2023-08-01T13:54:37;7.45;;;3.30;;
70320;SDS011;61127;55.826;37.046;2023-08-01T13:57:03;8.45;;;3.45;;
70320;SDS011;61127;55.826;37.046;2023-08-01T13:59:29;7.20;;;3.35;;
70320;SDS011;61127;55.826;37.046;2023-08-01T14:01:56;5.60;;;3.40;;
70320;SDS011;61127;55.826;37.046;2023-08-01T14:04:22;7.13;;;3.50;;
70320;SDS011;61127;55.826;37.046;2023-08-01T14:06:48;7.60;;;3.20;;
70320;SDS011;61127;55.826;37.046;2023-08-01T14:09:15;5.50;;;3.00;;
70320;SDS011;61127;55.826;37.046;2023-08-01T14:11:40;6.37;;;3.30;;
70320;SDS011;61127;55.826;37.046;2023-08-01T14:14:07;6.85;;;3.30;;
70320;SDS011;61127;55.826;37.046;2023-08-01T14:16:32;5.13;;;3.33;;
70320;SDS011;61127;55.826;37.046;2023-08-01T14:18:59;5.80;;;3.08;;
70320;SDS011;61127;55.826;37.046;2023-08-01T14:21:25;5.28;;;2.95;;
70320;SDS011;61127;55.826;37.046;2023-08-01T14:23:51;7.00;;;3.27;;
70320;SDS011;61127;55.826;37.046;2023-08-01T14:26:16;10.05;;;3.15;;